createdAt,value
2023-12-13T00:04:45.869Z,98986.75
2023-12-13T00:07:13.187Z,98989.59
2023-12-13T00:12:06.307Z,98989.41
2023-12-13T00:14:33.325Z,98988.16
2023-12-13T00:17:00.331Z,98990.41
2023-12-13T00:19:27.498Z,98982.69
2023-12-13T00:21:54.611Z,98990.19
2023-12-13T00:24:21.677Z,98992.81
2023-12-13T00:34:12.280Z,98991.63
2023-12-13T00:36:39.460Z,98982.09
2023-12-13T00:39:07.472Z,98977.03
2023-12-13T00:41:34.437Z,98978.44
2023-12-13T00:44:01.401Z,98976.81
2023-12-13T00:46:28.675Z,98982.50
2023-12-13T00:48:55.843Z,98977.63
2023-12-13T00:51:24.334Z,98982.50
2023-12-13T00:53:51.636Z,98983.72
2023-12-13T00:56:18.990Z,98983.09
2023-12-13T00:58:47.133Z,98987.16
2023-12-13T01:01:14.664Z,98993.81
2023-12-13T01:06:10.917Z,98993.03
2023-12-13T01:08:39.294Z,98999.09
2023-12-13T01:11:10.101Z,98999.53
2023-12-13T01:13:37.689Z,99010.06
2023-12-13T01:16:04.550Z,99008.44
2023-12-13T01:18:31.616Z,99007.63
2023-12-13T01:20:58.677Z,99011.25
2023-12-13T01:23:25.674Z,99010.44
2023-12-13T01:25:52.685Z,99017.13
2023-12-13T01:28:19.874Z,99012.88
2023-12-13T01:30:47.019Z,99021.78
2023-12-13T01:33:14.192Z,99020.34
2023-12-13T01:35:41.366Z,99021.16
2023-12-13T01:38:08.378Z,99024.44
2023-12-13T01:40:35.425Z,99023.81
2023-12-13T01:43:02.592Z,99029.25
2023-12-13T01:45:29.645Z,99033.75
2023-12-13T01:47:56.789Z,99031.88
2023-12-13T01:50:26.014Z,99039.41
2023-12-13T01:52:53.824Z,99034.34
2023-12-13T01:55:21.604Z,99040.41
2023-12-13T01:57:48.907Z,99038.19
2023-12-13T02:00:16.392Z,99047.09
2023-12-13T02:02:43.772Z,99045.28
2023-12-13T02:07:39.902Z,99050.34
2023-12-13T02:10:08.411Z,99059.03
2023-12-13T02:12:36.304Z,99056.19
2023-12-13T02:15:03.488Z,99068.31
2023-12-13T02:17:31.175Z,99068.53
2023-12-13T02:19:58.419Z,99073.81
2023-12-13T02:22:25.607Z,99073.00
2023-12-13T02:24:53.623Z,99074.22
2023-12-13T02:27:22.812Z,99077.25
2023-12-13T02:29:50.375Z,99083.31
2023-12-13T02:32:17.372Z,99086.16
2023-12-13T02:34:44.618Z,99087.38
2023-12-13T02:42:06.411Z,99102.75
2023-12-13T02:44:33.555Z,99107.41
2023-12-13T02:47:00.741Z,99104.34
2023-12-13T02:49:28.270Z,99105.56
2023-12-13T02:54:20.769Z,99118.13
2023-12-13T02:56:47.811Z,99119.53
2023-12-13T02:59:14.873Z,99112.25
2023-12-13T03:04:08.916Z,99115.47
2023-12-13T03:06:35.867Z,99116.66
2023-12-13T03:09:02.907Z,99112.22
2023-12-13T03:13:56.820Z,99117.91
2023-12-13T03:16:24.959Z,99117.69
2023-12-13T03:18:50.876Z,99129.63
2023-12-13T03:21:18.516Z,99128.19
2023-12-13T03:23:45.402Z,99132.88
2023-12-13T03:26:12.429Z,99133.69
2023-12-13T03:28:39.442Z,99129.84
2023-12-13T03:31:08.796Z,99132.69
2023-12-13T03:33:36.173Z,99135.91
2023-12-13T03:36:03.202Z,99135.91
2023-12-13T03:38:30.176Z,99142.97
2023-12-13T03:48:17.991Z,99147.06
2023-12-13T03:50:45.170Z,99159.22
2023-12-13T03:53:12.211Z,99162.03
2023-12-13T03:55:39.262Z,99167.28
2023-12-13T03:58:06.300Z,99161.03
2023-12-13T04:00:33.419Z,99165.88
2023-12-13T04:03:00.736Z,99173.97
2023-12-13T04:05:28.042Z,99169.53
2023-12-13T04:07:55.141Z,99173.16
2023-12-13T04:10:22.251Z,99170.94
2023-12-13T04:12:49.322Z,99181.28
2023-12-13T04:15:16.345Z,99185.53
2023-12-13T04:17:43.581Z,99183.28
2023-12-13T04:20:11.141Z,99183.44
2023-12-13T04:22:38.486Z,99196.59
2023-12-13T04:25:06.217Z,99202.69
2023-12-13T04:27:33.549Z,99207.53
2023-12-13T04:30:00.780Z,99211.81
2023-12-13T04:32:28.008Z,99217.25
2023-12-13T04:37:21.798Z,99208.94
2023-12-13T04:39:48.897Z,99207.72
2023-12-13T04:42:15.964Z,99213.00
2023-12-13T04:44:43.066Z,99210.75
2023-12-13T04:49:35.874Z,99218.66
2023-12-13T04:59:24.494Z,99232.81
2023-12-13T05:01:51.625Z,99227.72
2023-12-13T05:04:18.682Z,99229.75
2023-12-13T05:06:45.702Z,99232.00
2023-12-13T05:09:12.728Z,99235.03
2023-12-13T05:11:39.720Z,99233.81
2023-12-13T05:14:06.744Z,99237.47
2023-12-13T05:16:34.103Z,99233.97
2023-12-13T05:19:01.748Z,99248.75
2023-12-13T05:21:29.714Z,99249.94
2023-12-13T05:23:56.678Z,99243.88
2023-12-13T05:26:23.716Z,99250.16
2023-12-13T05:28:50.795Z,99245.09
2023-12-13T05:31:20.441Z,99254.97
2023-12-13T05:38:42.957Z,99257.81
2023-12-13T05:41:10.036Z,99254.38
2023-12-13T05:46:04.076Z,99263.69
2023-12-13T05:48:31.277Z,99269.56
2023-12-13T05:50:58.544Z,99269.56
2023-12-13T05:53:25.971Z,99275.00
2023-12-13T05:55:54.027Z,99284.13
2023-12-13T05:58:21.317Z,99285.13
2023-12-13T06:00:49.126Z,99289.75
2023-12-13T06:03:16.742Z,99284.88
2023-12-13T06:05:43.857Z,99298.22
2023-12-13T06:08:13.407Z,99290.50
2023-12-13T06:10:40.480Z,99293.34
2023-12-13T06:13:07.549Z,99292.72
2023-12-13T06:15:36.657Z,99291.53
2023-12-13T06:18:03.827Z,99300.84
2023-12-13T06:20:31.371Z,99301.47
2023-12-13T06:22:58.399Z,99306.72
2023-12-13T06:25:26.451Z,99315.63
2023-12-13T06:27:53.571Z,99315.44
2023-12-13T06:30:20.822Z,99311.78
2023-12-13T06:32:48.050Z,99323.56
2023-12-13T06:35:16.281Z,99328.00
2023-12-13T06:37:43.569Z,99332.06
2023-12-13T06:40:10.926Z,99335.34
2023-12-13T06:42:38.022Z,99340.59
2023-12-13T06:45:05.420Z,99345.03
2023-12-13T06:47:32.821Z,99347.66
2023-12-13T06:50:00.371Z,99349.09
2023-12-13T06:52:27.641Z,99347.66
2023-12-13T06:54:54.725Z,99358.00
2023-12-13T06:57:21.979Z,99363.69
2023-12-13T06:59:48.952Z,99372.19
2023-12-13T07:02:16.979Z,99360.06
2023-12-13T07:07:17.059Z,99375.59
2023-12-13T07:09:46.072Z,99376.78
2023-12-13T07:12:13.219Z,99381.88
2023-12-13T07:14:40.305Z,99388.53
2023-12-13T07:17:07.495Z,99386.13
2023-12-13T07:19:35.883Z,99393.44
2023-12-13T07:26:57.127Z,99400.09
2023-12-13T07:29:24.724Z,99405.97
2023-12-13T07:31:52.413Z,99397.00
2023-12-13T07:34:19.817Z,99404.09
2023-12-13T07:36:50.076Z,99417.63
2023-12-13T07:41:45.440Z,99429.13
2023-12-13T07:44:12.646Z,99424.69
2023-12-13T07:46:41.104Z,99431.16
2023-12-13T07:49:08.726Z,99426.09
2023-12-13T07:51:36.493Z,99429.53
2023-12-13T07:54:04.755Z,99435.16
2023-12-13T07:56:32.829Z,99434.72
2023-12-13T07:59:01.283Z,99440.34
2023-12-13T08:01:29.035Z,99450.25
2023-12-13T08:06:24.831Z,99456.06
2023-12-13T08:08:54.412Z,99454.25
2023-12-13T08:11:22.238Z,99454.44
2023-12-13T08:16:15.870Z,99459.69
2023-12-13T08:26:34.661Z,99468.91
2023-12-13T08:29:06.086Z,99461.41
2023-12-13T08:31:35.664Z,99471.09
2023-12-13T08:34:04.180Z,99475.72
2023-12-13T08:36:35.976Z,99477.91
2023-12-13T08:39:04.766Z,99476.91
2023-12-13T08:41:32.318Z,99491.63
2023-12-13T08:44:03.337Z,99492.22
2023-12-13T08:46:30.994Z,99498.78
2023-12-13T08:48:59.259Z,99501.75
2023-12-13T08:51:27.279Z,99515.53
2023-12-13T08:53:56.971Z,99512.09
2023-12-13T08:56:25.403Z,99513.72
2023-12-13T08:58:53.314Z,99511.38
2023-12-13T09:01:23.976Z,99523.47
2023-12-13T09:03:53.535Z,99522.69
2023-12-13T09:06:21.056Z,99531.03
2023-12-13T09:08:50.486Z,99537.91
2023-12-13T09:11:18.124Z,99541.16
2023-12-13T09:13:46.077Z,99546.63
2023-12-13T09:16:28.293Z,99547.88
2023-12-13T09:18:55.817Z,99546.88
2023-12-13T09:21:24.131Z,99555.78
2023-12-13T09:23:52.141Z,99560.03
2023-12-13T09:26:21.216Z,99554.78
2023-12-13T09:28:57.890Z,99556.03
2023-12-13T09:31:26.549Z,99561.91
2023-12-13T09:33:54.826Z,99572.25
2023-12-13T09:39:00.901Z,99577.69
2023-12-13T09:41:33.003Z,99585.97
2023-12-13T09:44:01.542Z,99589.41
2023-12-13T09:46:30.193Z,99590.66
2023-12-13T09:48:58.006Z,99600.75
2023-12-13T09:51:25.864Z,99604.38
2023-12-13T09:56:23.190Z,99616.06
2023-12-13T09:58:54.053Z,99623.59
2023-12-13T10:01:21.816Z,99622.78
2023-12-13T10:03:49.402Z,99637.03
2023-12-13T10:06:18.064Z,99634.56
2023-12-13T10:08:54.027Z,99637.84
2023-12-13T10:11:21.962Z,99635.38
2023-12-13T10:13:49.709Z,99638.28
2023-12-13T10:16:22.960Z,99649.06
2023-12-13T10:18:50.127Z,99651.53
2023-12-13T10:21:17.783Z,99657.63
2023-12-13T10:23:48.483Z,99665.94
2023-12-13T10:26:17.084Z,99679.66
2023-12-13T10:29:02.430Z,99675.94
2023-12-13T10:31:46.366Z,99690.09
2023-12-13T10:34:20.222Z,99694.53
2023-12-13T10:36:48.758Z,99720.50
2023-12-13T10:39:26.541Z,99724.81
2023-12-13T10:41:57.557Z,99727.00
2023-12-13T10:44:25.452Z,99719.94
2023-12-13T10:46:58.439Z,99733.59
2023-12-13T10:49:37.659Z,99743.31
2023-12-13T10:52:08.140Z,99737.13
2023-12-13T10:54:37.767Z,99753.06
2023-12-13T10:57:06.106Z,99750.16
2023-12-13T10:59:35.291Z,99756.63
2023-12-13T11:02:03.322Z,99762.22
2023-12-13T11:04:32.051Z,99763.84
2023-12-13T11:07:15.611Z,99762.22
2023-12-13T11:09:57.954Z,99767.28
2023-12-13T11:12:25.955Z,99768.94
2023-12-13T11:14:54.193Z,99761.22
2023-12-13T11:17:23.900Z,99767.28
2023-12-13T11:19:54.097Z,99770.22
2023-12-13T11:22:25.476Z,99781.19
2023-12-13T11:24:52.863Z,99790.53
2023-12-13T11:27:21.087Z,99794.31
2023-12-13T11:29:49.421Z,99805.22
2023-12-13T11:32:16.810Z,99795.69
2023-12-13T11:37:13.377Z,99802.06
2023-12-13T11:39:41.540Z,99801.06
2023-12-13T11:42:09.584Z,99812.56
2023-12-13T11:44:38.266Z,99805.75
2023-12-13T11:47:06.804Z,99811.63
2023-12-13T11:49:34.209Z,99809.38
2023-12-13T11:52:02.541Z,99812.97
2023-12-13T11:54:29.791Z,99820.88
2023-12-13T11:56:57.183Z,99835.19
2023-12-13T11:59:26.621Z,99817.94
2023-12-13T12:01:54.004Z,99816.13
2023-12-13T12:04:21.716Z,99813.50
2023-12-13T12:06:49.713Z,99829.28
2023-12-13T12:09:17.919Z,99820.75
2023-12-13T12:11:45.461Z,99827.63
2023-12-13T12:14:12.738Z,99831.44
2023-12-13T12:16:40.051Z,99831.63
2023-12-13T12:21:37.670Z,99839.69
2023-12-13T12:24:05.266Z,99849.41
2023-12-13T12:26:32.618Z,99844.31
2023-12-13T12:29:00.192Z,99856.97
2023-12-13T12:31:27.648Z,99864.88
2023-12-13T12:33:58.683Z,99860.44
2023-12-13T12:36:26.378Z,99861.72
2023-12-13T12:38:53.882Z,99859.91
2023-12-13T12:41:24.771Z,99861.19
2023-12-13T12:46:20.772Z,99865.63
2023-12-13T12:53:42.827Z,99872.22
2023-12-13T12:56:12.462Z,99864.19
2023-12-13T12:58:40.533Z,99866.84
2023-12-13T13:01:08.072Z,99883.13
2023-12-13T13:03:35.677Z,99883.13
2023-12-13T13:08:37.360Z,99886.25
2023-12-13T13:11:04.351Z,99891.22
2023-12-13T13:13:55.897Z,99894.03
2023-12-13T13:16:24.149Z,99892.41
2023-12-13T13:18:51.478Z,99892.19
2023-12-13T13:21:18.824Z,99897.66
2023-12-13T13:23:46.185Z,99900.75
2023-12-13T13:26:13.433Z,99893.22
2023-12-13T13:28:41.980Z,99897.81
2023-12-13T13:31:12.949Z,99896.34
2023-12-13T13:33:40.820Z,99898.31
2023-12-13T13:36:08.552Z,99900.13
2023-12-13T13:41:05.602Z,99911.97
2023-12-13T13:43:33.190Z,99908.00
2023-12-13T13:46:00.471Z,99902.25
2023-12-13T13:58:15.947Z,99944.13
2023-12-13T14:00:44.066Z,99937.56
2023-12-13T14:03:11.429Z,99947.09
2023-12-13T14:05:39.032Z,99948.59
2023-12-13T14:08:08.483Z,99941.53
2023-12-13T14:10:35.871Z,99954.00
2023-12-13T14:17:57.674Z,99953.38
2023-12-13T14:20:25.036Z,99973.41
2023-12-13T14:22:52.432Z,99972.38
2023-12-13T14:25:19.705Z,99981.75
2023-12-13T14:27:47.825Z,99984.72
2023-12-13T14:30:15.256Z,100003.44
2023-12-13T14:32:42.756Z,100002.16
2023-12-13T14:35:10.576Z,100005.44
2023-12-13T14:37:45.405Z,100009.19
2023-12-13T14:40:14.726Z,100014.63
2023-12-13T14:45:09.382Z,100019.56
2023-12-13T14:47:36.917Z,100025.44
2023-12-13T14:50:05.373Z,100029.56
2023-12-13T14:52:32.894Z,100039.91
2023-12-13T14:55:00.538Z,100043.50
2023-12-13T14:57:27.928Z,100047.94
2023-12-13T14:59:55.184Z,100056.97
2023-12-13T15:02:22.602Z,100049.72
2023-12-13T15:04:50.208Z,100069.91
2023-12-13T15:07:17.750Z,100071.25
2023-12-13T15:09:47.990Z,100085.84
2023-12-13T15:14:43.107Z,100112.25
2023-12-13T15:17:10.628Z,100097.66
2023-12-13T15:19:38.145Z,100097.81
2023-12-13T15:22:05.461Z,100104.53
2023-12-13T15:24:32.799Z,100119.09
2023-12-13T15:27:00.071Z,100128.81
2023-12-13T15:29:27.381Z,100130.47
2023-12-13T15:31:54.851Z,100126.19
2023-12-13T15:34:22.151Z,100134.41
2023-12-13T15:36:49.496Z,100144.91
2023-12-13T15:39:17.995Z,100151.78
2023-12-13T15:41:45.525Z,100152.78
2023-12-13T15:44:14.458Z,100155.91
2023-12-13T15:46:41.795Z,100165.94
2023-12-13T15:49:09.211Z,100168.72
2023-12-13T15:51:36.471Z,100168.03
2023-12-13T15:54:03.963Z,100172.31
2023-12-13T15:56:32.064Z,100191.38
2023-12-13T15:58:59.429Z,100194.78
2023-12-13T16:01:26.527Z,100211.22
2023-12-13T16:08:48.426Z,100218.06
2023-12-13T16:11:16.353Z,100224.47
2023-12-13T16:13:43.766Z,100234.00
2023-12-13T16:16:13.278Z,100230.56
2023-12-13T16:18:40.561Z,100236.44
2023-12-13T16:21:08.023Z,100236.59
2023-12-13T16:23:35.308Z,100240.03
2023-12-13T16:26:02.746Z,100259.22
2023-12-13T16:28:30.103Z,100272.34
2023-12-13T16:31:01.014Z,100274.47
2023-12-13T16:33:28.508Z,100277.75
2023-12-13T16:35:55.959Z,100299.06
2023-12-13T16:38:23.545Z,100306.13
2023-12-13T16:40:50.901Z,100296.31
2023-12-13T16:43:18.816Z,100316.16
2023-12-13T16:45:48.803Z,100323.53
2023-12-13T16:48:16.761Z,100327.81
2023-12-13T16:50:44.287Z,100337.16
2023-12-13T16:53:21.239Z,100346.81
2023-12-13T16:58:15.488Z,100357.94
2023-12-13T17:00:44.797Z,100359.94
2023-12-13T17:03:13.926Z,100363.75
2023-12-13T17:10:50.603Z,100389.19
2023-12-13T17:13:27.601Z,100386.72
2023-12-13T17:18:21.708Z,100386.56
2023-12-13T17:20:49.905Z,100388.22
2023-12-13T17:23:18.015Z,100403.81
2023-12-13T17:28:12.418Z,100409.56
2023-12-13T17:30:39.773Z,100412.03
2023-12-13T17:33:07.296Z,100418.06
2023-12-13T17:35:35.492Z,100420.03
2023-12-13T17:38:05.735Z,100426.47
2023-12-13T17:40:32.990Z,100429.88
2023-12-13T17:43:00.364Z,100435.59
2023-12-13T17:45:32.269Z,100443.69
2023-12-13T17:47:59.701Z,100451.72
2023-12-13T17:50:29.710Z,100444.50
2023-12-13T17:52:57.091Z,100456.78
2023-12-13T17:55:25.000Z,100461.50
2023-12-13T17:57:53.065Z,100472.69
2023-12-13T18:00:20.488Z,100487.59
2023-12-13T18:02:49.083Z,100477.41
2023-12-13T18:07:43.123Z,100488.66
2023-12-13T18:10:10.762Z,100507.03
2023-12-13T18:12:38.154Z,100507.28
2023-12-13T18:15:05.573Z,100512.38
2023-12-13T18:17:33.208Z,100522.03
2023-12-13T18:22:28.120Z,100526.47
2023-12-13T18:24:55.429Z,100537.50
2023-12-13T18:27:22.777Z,100544.56
2023-12-13T18:29:50.765Z,100556.84
2023-12-13T18:39:40.198Z,100561.41
2023-12-13T18:42:08.876Z,100574.97
2023-12-13T18:49:31.159Z,100594.75
2023-12-13T18:51:58.615Z,100593.03
2023-12-13T18:54:25.832Z,100603.00
2023-12-13T18:56:53.860Z,100603.53
2023-12-13T18:59:21.129Z,100613.31
2023-12-13T19:01:48.565Z,100615.69
2023-12-13T19:04:16.034Z,100617.03
2023-12-13T19:06:43.961Z,100628.34
2023-12-13T19:09:11.382Z,100624.75
2023-12-13T19:11:38.761Z,100632.47
2023-12-13T19:14:07.849Z,100637.44
2023-12-13T19:16:36.944Z,100645.81
2023-12-13T19:19:05.005Z,100654.38
2023-12-13T19:21:32.324Z,100651.22
2023-12-13T19:23:59.884Z,100662.66
2023-12-13T19:26:27.212Z,100667.53
2023-12-13T19:28:55.688Z,100683.44
2023-12-13T19:31:23.719Z,100691.59
2023-12-13T19:33:51.122Z,100691.91
2023-12-13T19:41:12.330Z,100690.47
2023-12-13T19:43:41.539Z,100698.22
2023-12-13T19:46:10.103Z,100708.56
2023-12-13T19:48:37.513Z,100711.59
2023-12-13T19:51:05.093Z,100712.56
2023-12-13T19:53:32.195Z,100708.84
2023-12-13T19:56:00.115Z,100730.66
2023-12-13T19:58:27.423Z,100738.16
2023-12-13T20:00:54.910Z,100746.16
2023-12-13T20:03:22.214Z,100750.03
2023-12-13T20:05:49.510Z,100754.31
2023-12-13T20:08:16.817Z,100764.03
2023-12-13T20:10:44.660Z,100763.84
2023-12-13T20:13:12.212Z,100775.03
2023-12-13T20:15:48.259Z,100782.47
2023-12-13T20:18:15.650Z,100789.91
2023-12-13T20:20:42.862Z,100788.97
2023-12-13T20:23:10.162Z,100793.25
2023-12-13T20:25:37.285Z,100799.59
2023-12-13T20:28:04.430Z,100805.00
2023-12-13T20:35:26.599Z,100828.88
2023-12-13T20:37:53.841Z,100843.66
2023-12-13T20:40:20.863Z,100845.84
2023-12-13T20:42:50.269Z,100849.84
2023-12-13T20:45:17.404Z,100852.75
2023-12-13T20:47:44.651Z,100860.50
2023-12-13T20:50:13.023Z,100866.41
2023-12-13T20:52:40.600Z,100863.38
2023-12-13T20:55:07.967Z,100875.25
2023-12-13T20:57:37.673Z,100876.63
2023-12-13T21:00:07.046Z,100886.31
2023-12-13T21:02:35.835Z,100901.75
2023-12-13T21:05:04.522Z,100899.84
2023-12-13T21:07:31.961Z,100906.56
2023-12-13T21:09:59.031Z,100902.47
2023-12-13T21:12:26.739Z,100916.25
2023-12-13T21:14:54.409Z,100917.38
2023-12-13T21:17:22.077Z,100920.53
2023-12-13T21:19:49.103Z,100914.19
2023-12-13T21:22:25.601Z,100929.91
2023-12-13T21:24:52.468Z,100922.75
2023-12-13T21:27:19.805Z,100937.25
2023-12-13T21:29:46.932Z,100933.69
2023-12-13T21:32:14.354Z,100939.59
2023-12-13T21:40:06.085Z,100957.41
2023-12-13T21:42:34.386Z,100953.13
2023-12-13T21:45:02.137Z,100956.88
2023-12-13T21:47:33.135Z,100954.38
2023-12-13T21:50:01.475Z,100964.63
2023-12-13T21:52:28.545Z,100963.91
2023-12-13T21:54:55.925Z,100967.63
2023-12-13T21:57:23.199Z,100972.19
2023-12-13T21:59:50.510Z,100976.31
2023-12-13T22:02:17.973Z,100992.22
2023-12-13T22:04:45.282Z,100992.34
2023-12-13T22:07:12.396Z,100993.19
2023-12-13T22:09:39.273Z,100989.59
2023-12-13T22:12:06.760Z,100997.72
2023-12-13T22:14:34.270Z,100998.69
2023-12-13T22:17:01.530Z,101001.88
2023-12-13T22:19:38.507Z,100999.91
2023-12-13T22:22:06.891Z,101009.16
2023-12-13T22:24:33.900Z,101019.81
2023-12-13T22:27:02.736Z,101026.13
2023-12-13T22:29:29.929Z,101034.53
2023-12-13T22:31:56.947Z,101032.91
2023-12-13T22:34:24.088Z,101036.38
2023-12-13T22:36:51.114Z,101036.38
2023-12-13T22:39:18.603Z,101037.44
2023-12-13T22:41:45.706Z,101047.81
2023-12-13T22:44:13.186Z,101051.69
2023-12-13T22:46:40.496Z,101054.16
2023-12-13T22:49:07.778Z,101061.75
2023-12-13T22:52:18.010Z,101064.63
2023-12-13T22:54:30.049Z,101065.34
2023-12-13T22:56:57.436Z,101071.53
2023-12-13T22:59:24.571Z,101073.63
2023-12-13T23:01:54.484Z,101071.13
2023-12-13T23:04:24.035Z,101082.59
2023-12-13T23:06:51.124Z,101080.78
2023-12-13T23:09:18.955Z,101092.00
2023-12-13T23:11:46.028Z,101092.25
2023-12-13T23:14:13.141Z,101100.00
2023-12-13T23:16:40.439Z,101099.31
2023-12-13T23:19:07.599Z,101102.72
2023-12-13T23:21:34.857Z,101109.94
2023-12-13T23:24:01.918Z,101105.50
2023-12-13T23:26:29.010Z,101103.84
2023-12-13T23:28:56.486Z,101108.13
2023-12-13T23:31:29.932Z,101100.50
2023-12-13T23:34:03.659Z,101099.56
2023-12-13T23:36:32.301Z,101106.47
2023-12-13T23:38:59.249Z,101115.16
2023-12-13T23:41:29.094Z,101124.00
2023-12-13T23:44:04.838Z,101127.72
2023-12-13T23:46:31.873Z,101129.75
2023-12-13T23:48:59.347Z,101136.28
2023-12-13T23:51:26.367Z,101144.97
2023-12-13T23:53:53.330Z,101145.53
2023-12-13T23:56:21.969Z,101136.03
2023-12-13T23:58:48.953Z,101143.06
